Terminal Aerodrome Forecast
Issued by NWS

Home | Current Version | Previous Version | Text Only | Print | Product List | Glossary On
Versions: 1 2 3 4 5 6 7 8 9 10 11 12 13
000
FTUS42 TJSJ 251100
TAFJSJ
TAF
TJSJ 251135Z 2512/2612 11003KT P6SM VCSH FEW029 SCT035 SCT060
     FM251300 08016G24KT P6SM VCSH SCT030
     FM252200 08007KT P6SM VCSH FEW035=

USA.gov is the U.S. government's official web portal to all federal, state and local government web resources and services.